createdAt,value
2022-12-15T00:00:17.392Z,97154.97
2022-12-15T00:03:26.846Z,97147.19
2022-12-15T00:06:34.158Z,97170.38
2022-12-15T00:09:39.562Z,97156.66
2022-12-15T00:12:45.037Z,97148.13
2022-12-15T00:15:50.191Z,97143.03
2022-12-15T00:18:55.126Z,97151.66
2022-12-15T00:22:01.834Z,97157.66
2022-12-15T00:25:07.173Z,97153.63
2022-12-15T00:28:14.926Z,97164.97
2022-12-15T00:31:20.046Z,97168.59
2022-12-15T00:34:26.033Z,97186.78
2022-12-15T00:37:32.705Z,97185.94
2022-12-15T00:40:20.449Z,97185.84
2022-12-15T00:43:12.041Z,97190.31
2022-12-15T00:46:17.951Z,97186.69
2022-12-15T00:49:25.877Z,97188.34
2022-12-15T00:52:33.371Z,97201.53
2022-12-15T00:55:39.037Z,97202.88
2022-12-15T00:58:44.074Z,97195.03
2022-12-15T01:01:49.733Z,97207.09
2022-12-15T01:04:55.358Z,97213.97
2022-12-15T01:08:01.585Z,97216.38
2022-12-15T01:11:06.900Z,97201.50
2022-12-15T01:14:12.172Z,97218.78
2022-12-15T01:17:17.206Z,97231.66
2022-12-15T01:20:18.115Z,97233.97
2022-12-15T01:23:07.112Z,97233.97
2022-12-15T01:25:55.857Z,97228.66
2022-12-15T01:28:43.620Z,97231.25
2022-12-15T01:31:31.680Z,97224.38
2022-12-15T01:34:22.602Z,97247.66
2022-12-15T01:37:10.658Z,97258.06
2022-12-15T01:40:17.782Z,97266.81
2022-12-15T01:43:10.766Z,97259.75
2022-12-15T01:46:05.565Z,97250.38
2022-12-15T01:49:00.915Z,97265.16
2022-12-15T01:51:52.479Z,97265.84
2022-12-15T01:54:46.240Z,97265.84
2022-12-15T01:57:38.825Z,97274.41
2022-12-15T02:00:28.162Z,97287.59
2022-12-15T02:03:17.148Z,97278.13
2022-12-15T02:06:05.033Z,97288.53
2022-12-15T02:08:56.455Z,97280.84
2022-12-15T02:11:56.207Z,97267.94
2022-12-15T02:15:01.104Z,97278.34
2022-12-15T02:17:58.515Z,97288.16
2022-12-15T02:20:59.999Z,97302.72
2022-12-15T02:24:26.360Z,97304.50
2022-12-15T02:27:35.363Z,97302.63
2022-12-15T02:30:39.277Z,97301.72
2022-12-15T02:33:31.228Z,97299.94
2022-12-15T02:36:26.837Z,97304.31
2022-12-15T02:39:15.830Z,97308.66
2022-12-15T02:42:04.026Z,97313.97
2022-12-15T02:44:55.930Z,97300.13
2022-12-15T02:47:53.420Z,97300.88
2022-12-15T02:50:58.681Z,97303.56
2022-12-15T02:54:07.301Z,97318.41
2022-12-15T02:57:06.003Z,97298.56
2022-12-15T02:59:58.714Z,97295.25
2022-12-15T03:02:52.129Z,97308.97
2022-12-15T03:05:40.312Z,97310.63
2022-12-15T03:08:28.364Z,97312.41
2022-12-15T03:11:16.673Z,97318.50
2022-12-15T03:14:04.425Z,97301.34
2022-12-15T03:16:52.573Z,97309.06
2022-12-15T03:19:41.660Z,97324.63
2022-12-15T03:22:29.507Z,97316.03
2022-12-15T03:25:17.248Z,97333.38
2022-12-15T03:28:05.108Z,97340.31
2022-12-15T03:30:53.311Z,97349.06
2022-12-15T03:33:41.433Z,97340.50
2022-12-15T03:36:31.091Z,97341.47
2022-12-15T03:39:19.079Z,97330.31
2022-12-15T03:42:07.540Z,97327.00
2022-12-15T03:44:55.544Z,97333.84
2022-12-15T03:47:44.293Z,97333.84
2022-12-15T03:50:32.037Z,97334.78
2022-12-15T03:53:21.698Z,97336.72
2022-12-15T03:56:10.065Z,97341.09
2022-12-15T03:58:58.152Z,97341.94
2022-12-15T04:01:49.270Z,97340.25
2022-12-15T04:04:37.612Z,97338.50
2022-12-15T04:07:25.796Z,97339.19
2022-12-15T04:10:15.895Z,97338.97
2022-12-15T04:13:05.833Z,97331.91
2022-12-15T04:15:53.642Z,97341.41
2022-12-15T04:18:41.696Z,97358.53
2022-12-15T04:21:28.664Z,97372.44
2022-12-15T04:24:34.208Z,97378.66
2022-12-15T04:27:41.054Z,97377.75
2022-12-15T04:30:46.838Z,97363.94
2022-12-15T04:33:52.420Z,97363.09
2022-12-15T04:36:59.182Z,97364.97
2022-12-15T04:40:09.035Z,97362.25
2022-12-15T04:43:15.604Z,97363.19
2022-12-15T04:46:20.907Z,97370.25
2022-12-15T04:49:26.470Z,97383.41
2022-12-15T04:52:31.958Z,97388.78
2022-12-15T04:55:37.454Z,97402.69
2022-12-15T04:58:44.203Z,97398.44
2022-12-15T05:01:49.481Z,97415.84
2022-12-15T05:04:55.411Z,97411.41
2022-12-15T05:08:00.723Z,97403.72
2022-12-15T05:11:05.756Z,97408.06
2022-12-15T05:14:12.690Z,97402.06
2022-12-15T05:17:17.957Z,97401.22
2022-12-15T05:20:24.022Z,97404.00
2022-12-15T05:23:29.825Z,97402.31
2022-12-15T05:26:35.167Z,97407.63
2022-12-15T05:29:41.725Z,97410.31
2022-12-15T05:32:32.288Z,97415.50
2022-12-15T05:35:20.194Z,97419.84
2022-12-15T05:38:08.513Z,97432.72
2022-12-15T05:40:59.398Z,97432.72
2022-12-15T05:43:49.423Z,97440.69
2022-12-15T05:46:39.272Z,97438.09
2022-12-15T05:49:26.952Z,97429.59
2022-12-15T05:52:14.960Z,97433.94
2022-12-15T05:55:03.029Z,97435.69
2022-12-15T05:57:53.474Z,97437.56
2022-12-15T06:00:41.299Z,97442.66
2022-12-15T06:03:31.756Z,97437.56
2022-12-15T06:06:20.411Z,97447.00
2022-12-15T06:09:08.476Z,97462.00
2022-12-15T06:11:56.656Z,97456.63
2022-12-15T06:14:44.370Z,97456.53
2022-12-15T06:17:34.931Z,97468.72
2022-12-15T06:20:26.065Z,97459.22
2022-12-15T06:23:15.358Z,97454.22
2022-12-15T06:26:11.753Z,97445.72
2022-12-15T06:29:02.625Z,97449.03
2022-12-15T06:31:50.576Z,97452.38
2022-12-15T06:34:38.698Z,97466.22
2022-12-15T06:37:30.125Z,97470.56
2022-12-15T06:40:17.820Z,97472.22
2022-12-15T06:43:07.848Z,97466.28
2022-12-15T06:45:55.767Z,97460.34
2022-12-15T06:48:44.964Z,97483.72
2022-12-15T06:51:33.373Z,97495.75
2022-12-15T06:54:22.805Z,97484.56
2022-12-15T06:57:10.792Z,97478.53
2022-12-15T07:00:01.472Z,97474.25
2022-12-15T07:02:50.134Z,97462.09
2022-12-15T07:05:38.415Z,97465.53
2022-12-15T07:08:30.915Z,97491.50
2022-12-15T07:11:23.626Z,97489.06
2022-12-15T07:14:13.496Z,97503.00
2022-12-15T07:17:01.264Z,97497.72
2022-12-15T07:19:49.189Z,97498.56
2022-12-15T07:22:37.323Z,97512.34
2022-12-15T07:25:25.465Z,97519.97
2022-12-15T07:28:14.805Z,97529.50
2022-12-15T07:31:08.070Z,97526.91
2022-12-15T07:33:56.054Z,97520.91
2022-12-15T07:36:49.995Z,97526.91
2022-12-15T07:39:43.693Z,97519.13
2022-12-15T07:42:33.486Z,97525.25
2022-12-15T07:45:22.918Z,97511.53
2022-12-15T07:48:11.048Z,97509.13
2022-12-15T07:51:07.425Z,97525.59
2022-12-15T07:53:57.955Z,97518.84
2022-12-15T07:56:50.479Z,97527.63
2022-12-15T07:59:38.737Z,97531.22
2022-12-15T08:02:28.192Z,97524.44
2022-12-15T08:05:28.100Z,97538.53
2022-12-15T08:08:15.800Z,97530.06
2022-12-15T08:11:09.133Z,97531.94
2022-12-15T08:14:06.970Z,97545.00
2022-12-15T08:16:56.325Z,97554.63
2022-12-15T08:19:45.850Z,97546.06
2022-12-15T08:22:33.584Z,97551.34
2022-12-15T08:25:21.797Z,97553.28
2022-12-15T08:28:09.707Z,97551.72
2022-12-15T08:31:03.025Z,97557.00
2022-12-15T08:33:51.823Z,97562.34
2022-12-15T08:36:41.121Z,97572.03
2022-12-15T08:39:29.309Z,97573.06
2022-12-15T08:42:17.218Z,97564.59
2022-12-15T08:45:06.387Z,97567.44
2022-12-15T08:47:54.835Z,97575.38
2022-12-15T08:50:46.275Z,97587.63
2022-12-15T08:53:36.175Z,97587.78
2022-12-15T08:56:25.540Z,97589.69
2022-12-15T08:59:13.861Z,97586.44
2022-12-15T09:02:02.081Z,97589.94
2022-12-15T09:04:50.976Z,97595.28
2022-12-15T09:07:40.350Z,97593.69
2022-12-15T09:10:29.842Z,97602.47
2022-12-15T09:13:17.623Z,97605.97
2022-12-15T09:16:10.242Z,97607.66
2022-12-15T09:19:00.777Z,97612.84
2022-12-15T09:21:49.582Z,97618.03
2022-12-15T09:24:37.384Z,97620.56
2022-12-15T09:27:26.501Z,97628.25
2022-12-15T09:30:14.961Z,97620.22
2022-12-15T09:33:02.831Z,97616.63
2022-12-15T09:35:54.492Z,97633.59
2022-12-15T09:38:44.143Z,97638.63
2022-12-15T09:41:34.003Z,97637.63
2022-12-15T09:44:25.579Z,97608.94
2022-12-15T09:47:26.433Z,97607.09
2022-12-15T09:50:16.505Z,97603.50
2022-12-15T09:53:23.146Z,97584.41
2022-12-15T09:56:22.011Z,97581.56
2022-12-15T09:59:26.848Z,97569.97
2022-12-15T10:02:45.075Z,97576.41
2022-12-15T10:06:07.449Z,97587.75
2022-12-15T10:08:59.569Z,97583.84
2022-12-15T10:11:53.010Z,97592.84
2022-12-15T10:14:46.852Z,97594.03
2022-12-15T10:17:50.458Z,97596.13
2022-12-15T10:20:38.858Z,97594.28
2022-12-15T10:23:27.362Z,97597.72
2022-12-15T10:26:21.611Z,97595.22
2022-12-15T10:29:23.565Z,97591.81
2022-12-15T10:32:19.238Z,97582.09
2022-12-15T10:35:15.912Z,97569.69
2022-12-15T10:38:05.643Z,97569.09
2022-12-15T10:40:56.434Z,97564.38
2022-12-15T10:43:46.942Z,97553.75
2022-12-15T10:46:35.179Z,97544.72
2022-12-15T10:49:25.703Z,97540.16
2022-12-15T10:52:34.877Z,97535.75
2022-12-15T10:55:38.425Z,97520.81
2022-12-15T10:58:26.361Z,97510.34
2022-12-15T11:01:19.477Z,97507.41
2022-12-15T11:04:27.052Z,97490.97
2022-12-15T11:07:15.972Z,97500.56
2022-12-15T11:10:19.944Z,97501.34
2022-12-15T11:13:13.937Z,97495.63
2022-12-15T11:16:15.766Z,97502.44
2022-12-15T11:19:09.281Z,97506.66
2022-12-15T11:22:02.320Z,97494.09
2022-12-15T11:24:54.065Z,97488.41
2022-12-15T11:27:47.994Z,97485.47
2022-12-15T11:30:43.966Z,97492.13
2022-12-15T11:33:32.260Z,97490.81
2022-12-15T11:36:31.318Z,97491.31
2022-12-15T11:39:31.573Z,97494.41
2022-12-15T11:42:30.444Z,97497.75
2022-12-15T11:45:25.718Z,97507.25
2022-12-15T11:48:17.328Z,97495.84
2022-12-15T11:51:12.295Z,97480.25
2022-12-15T11:54:14.701Z,97480.50
2022-12-15T11:57:21.078Z,97474.69
2022-12-15T12:00:20.516Z,97472.28
2022-12-15T12:03:24.777Z,97471.56
2022-12-15T12:06:17.900Z,97472.75
2022-12-15T12:09:14.339Z,97478.22
2022-12-15T12:12:14.160Z,97465.47
2022-12-15T12:15:20.709Z,97469.91
2022-12-15T12:18:21.029Z,97469.41
2022-12-15T12:21:13.390Z,97460.13
2022-12-15T12:24:05.365Z,97455.25
2022-12-15T12:27:00.172Z,97461.75
2022-12-15T12:29:52.384Z,97452.22
2022-12-15T12:32:48.372Z,97446.31
2022-12-15T12:35:46.581Z,97450.91
2022-12-15T12:38:42.141Z,97457.22
2022-12-15T12:41:40.429Z,97458.13
2022-12-15T12:44:33.442Z,97457.44
2022-12-15T12:47:26.051Z,97452.22
2022-12-15T12:50:19.966Z,97453.13
2022-12-15T12:53:28.074Z,97458.25
2022-12-15T12:56:33.099Z,97453.88
2022-12-15T12:59:40.304Z,97444.25
2022-12-15T13:02:54.837Z,97435.34
2022-12-15T13:05:44.316Z,97432.75
2022-12-15T13:08:51.574Z,97430.13
2022-12-15T13:12:20.801Z,97410.41
2022-12-15T13:15:21.477Z,97392.22
2022-12-15T13:18:19.344Z,97392.22
2022-12-15T13:21:38.128Z,97393.03
2022-12-15T13:24:45.119Z,97378.56
2022-12-15T13:27:39.117Z,97378.56
2022-12-15T13:30:27.481Z,97383.88
2022-12-15T13:33:20.417Z,97379.50
2022-12-15T13:36:09.450Z,97382.34
2022-12-15T13:38:57.829Z,97378.09
2022-12-15T13:42:34.254Z,97379.00
2022-12-15T13:45:50.281Z,97381.63
2022-12-15T13:48:44.497Z,97386.84
2022-12-15T13:51:39.200Z,97391.16
2022-12-15T13:54:32.784Z,97384.13
2022-12-15T13:57:24.056Z,97391.84
2022-12-15T14:00:22.809Z,97391.84
2022-12-15T14:03:13.315Z,97389.34
2022-12-15T14:06:02.475Z,97387.69
2022-12-15T14:08:51.455Z,97385.91
2022-12-15T14:11:57.859Z,97380.69
2022-12-15T14:14:50.371Z,97371.28
2022-12-15T14:17:38.464Z,97379.22
2022-12-15T14:20:28.538Z,97375.94
2022-12-15T14:23:20.750Z,97371.63
2022-12-15T14:26:12.181Z,97373.66
2022-12-15T14:29:03.551Z,97369.50
2022-12-15T14:31:55.899Z,97379.31
2022-12-15T14:34:45.247Z,97381.31
2022-12-15T14:37:39.226Z,97373.81
2022-12-15T14:40:29.265Z,97373.22
2022-12-15T14:43:23.859Z,97374.41
2022-12-15T14:46:17.796Z,97379.13
2022-12-15T14:49:19.513Z,97386.44
2022-12-15T14:52:13.722Z,97399.03
2022-12-15T14:55:04.060Z,97398.50
2022-12-15T14:57:54.039Z,97401.56
2022-12-15T15:00:52.834Z,97403.69
2022-12-15T15:03:42.413Z,97393.69
2022-12-15T15:06:36.016Z,97391.50
2022-12-15T15:09:27.043Z,97399.75
2022-12-15T15:12:18.567Z,97393.31
2022-12-15T15:15:09.897Z,97392.91
2022-12-15T15:18:00.197Z,97396.78
2022-12-15T15:20:57.901Z,97386.09
2022-12-15T15:24:04.443Z,97377.94
2022-12-15T15:27:42.834Z,97368.91
2022-12-15T15:30:31.232Z,97363.25
2022-12-15T15:33:23.241Z,97374.03
2022-12-15T15:36:13.332Z,97364.25
2022-12-15T15:39:15.304Z,97367.28
2022-12-15T15:42:11.632Z,97366.75
2022-12-15T15:45:04.337Z,97372.16
2022-12-15T15:48:25.117Z,97370.72
2022-12-15T15:51:14.101Z,97380.59
2022-12-15T15:54:06.648Z,97380.94
2022-12-15T15:56:54.546Z,97382.06
2022-12-15T15:59:44.716Z,97378.84
2022-12-15T16:02:32.855Z,97388.53
2022-12-15T16:05:22.193Z,97385.28
2022-12-15T16:08:15.532Z,97381.13
2022-12-15T16:11:05.161Z,97370.91
2022-12-15T16:13:53.359Z,97384.25
2022-12-15T16:16:41.938Z,97381.75
2022-12-15T16:19:33.754Z,97371.53
2022-12-15T16:22:27.700Z,97377.88
2022-12-15T16:25:18.729Z,97385.09
2022-12-15T16:28:14.278Z,97381.84
2022-12-15T16:31:02.376Z,97373.38
2022-12-15T16:33:50.274Z,97362.47
2022-12-15T16:36:39.134Z,97369.44
2022-12-15T16:39:29.022Z,97365.16
2022-12-15T16:42:17.738Z,97361.81
2022-12-15T16:45:16.451Z,97360.88
2022-12-15T16:48:04.583Z,97354.03
2022-12-15T16:50:55.113Z,97364.44
2022-12-15T16:53:45.036Z,97355.91
2022-12-15T16:56:33.525Z,97356.09
2022-12-15T16:59:38.918Z,97351.09
2022-12-15T17:02:30.337Z,97349.50
2022-12-15T17:05:19.380Z,97343.81
2022-12-15T17:08:09.682Z,97343.16
2022-12-15T17:10:57.724Z,97338.06
2022-12-15T17:13:50.958Z,97345.25
2022-12-15T17:16:39.111Z,97347.09
2022-12-15T17:19:28.900Z,97348.97
2022-12-15T17:22:17.865Z,97360.41
2022-12-15T17:25:07.230Z,97361.44
2022-12-15T17:27:57.311Z,97367.66
2022-12-15T17:30:45.053Z,97365.19
2022-12-15T17:33:39.222Z,97362.03
2022-12-15T17:36:29.685Z,97358.69
2022-12-15T17:39:20.609Z,97365.78
2022-12-15T17:42:17.554Z,97358.88
2022-12-15T17:45:15.060Z,97343.69
2022-12-15T17:48:03.295Z,97336.81
2022-12-15T17:50:52.601Z,97333.50
2022-12-15T17:53:51.381Z,97334.41
2022-12-15T17:56:40.979Z,97343.25
2022-12-15T17:59:28.811Z,97333.06
2022-12-15T18:02:17.271Z,97328.78
2022-12-15T18:05:06.088Z,97327.19
2022-12-15T18:07:56.756Z,97317.00
2022-12-15T18:10:47.397Z,97310.16
2022-12-15T18:13:36.000Z,97312.03
2022-12-15T18:16:24.426Z,97313.88
2022-12-15T18:19:12.937Z,97310.44
2022-12-15T18:22:01.199Z,97297.63
2022-12-15T18:24:49.505Z,97290.97
2022-12-15T18:27:39.683Z,97292.72
2022-12-15T18:30:32.950Z,97290.97
2022-12-15T18:33:23.221Z,97284.94
2022-12-15T18:36:11.511Z,97280.03
2022-12-15T18:38:59.141Z,97276.72
2022-12-15T18:41:48.132Z,97286.56
2022-12-15T18:44:37.639Z,97285.53
2022-12-15T18:47:26.380Z,97279.41
2022-12-15T18:50:19.666Z,97299.25
2022-12-15T18:53:13.503Z,97294.91
2022-12-15T18:56:03.116Z,97295.72
2022-12-15T18:58:51.378Z,97283.66
2022-12-15T19:01:45.581Z,97283.75
2022-12-15T19:04:33.612Z,97280.53
2022-12-15T19:07:21.796Z,97279.69
2022-12-15T19:10:49.356Z,97264.31
2022-12-15T19:13:39.544Z,97267.94
2022-12-15T19:16:55.602Z,97273.13
2022-12-15T19:20:02.390Z,97275.84
2022-12-15T19:22:51.155Z,97262.00
2022-12-15T19:25:40.127Z,97272.47
2022-12-15T19:28:28.078Z,97266.53
2022-12-15T19:31:16.279Z,97260.53
2022-12-15T19:34:04.382Z,97251.19
2022-12-15T19:36:53.873Z,97245.13
2022-12-15T19:39:41.744Z,97241.59
2022-12-15T19:42:32.420Z,97241.59
2022-12-15T19:45:22.036Z,97243.47
2022-12-15T19:48:12.353Z,97245.34
2022-12-15T19:51:00.373Z,97248.88
2022-12-15T19:53:50.807Z,97236.78
2022-12-15T19:56:38.912Z,97229.94
2022-12-15T19:59:28.428Z,97231.06
2022-12-15T20:02:26.627Z,97229.38
2022-12-15T20:05:14.850Z,97230.22
2022-12-15T20:08:05.600Z,97216.41
2022-12-15T20:14:29.172Z,97207.25
2022-12-15T20:17:18.724Z,97209.94
2022-12-15T20:20:07.943Z,97203.09
2022-12-15T20:23:00.965Z,97192.88
2022-12-15T20:25:53.319Z,97208.66
2022-12-15T20:28:45.130Z,97200.88
2022-12-15T20:31:33.251Z,97198.28
2022-12-15T20:34:21.975Z,97197.34
2022-12-15T20:37:20.986Z,97195.38
2022-12-15T20:40:20.511Z,97192.88
2022-12-15T20:43:14.707Z,97189.53
2022-12-15T20:46:07.345Z,97181.84
2022-12-15T20:48:56.445Z,97186.25
2022-12-15T20:51:45.309Z,97187.88
2022-12-15T20:54:33.474Z,97181.84
2022-12-15T20:57:21.943Z,97172.31
2022-12-15T21:00:12.183Z,97184.34
2022-12-15T21:03:10.286Z,97193.94
2022-12-15T21:06:00.573Z,97191.34
2022-12-15T21:08:49.415Z,97191.25
2022-12-15T21:11:37.530Z,97191.25
2022-12-15T21:14:26.136Z,97188.53
2022-12-15T21:17:16.830Z,97193.53
2022-12-15T21:20:07.046Z,97182.81
2022-12-15T21:22:55.291Z,97183.56
2022-12-15T21:25:43.409Z,97185.13
2022-12-15T21:28:31.948Z,97184.03
2022-12-15T21:31:20.406Z,97186.53
2022-12-15T21:34:09.535Z,97191.63
2022-12-15T21:36:59.373Z,97189.84
2022-12-15T21:39:47.623Z,97191.53
2022-12-15T21:42:37.330Z,97190.69
2022-12-15T21:45:26.378Z,97183.72
2022-12-15T21:48:32.183Z,97192.22
2022-12-15T21:51:20.374Z,97199.00
2022-12-15T21:54:18.141Z,97206.69
2022-12-15T21:57:10.358Z,97211.78
2022-12-15T21:59:58.465Z,97206.50
2022-12-15T22:02:47.174Z,97198.69
2022-12-15T22:05:35.484Z,97201.09
2022-12-15T22:08:23.614Z,97207.13
2022-12-15T22:11:22.224Z,97208.69
2022-12-15T22:14:20.635Z,97205.19
2022-12-15T22:17:17.101Z,97199.03
2022-12-15T22:20:14.279Z,97199.88
2022-12-15T22:23:02.250Z,97197.91
2022-12-15T22:25:55.442Z,97200.31
2022-12-15T22:28:45.164Z,97201.16
2022-12-15T22:31:33.028Z,97202.81
2022-12-15T22:34:23.038Z,97189.69
2022-12-15T22:37:10.847Z,97192.31
2022-12-15T22:39:58.917Z,97191.25
2022-12-15T22:42:50.834Z,97180.75
2022-12-15T22:45:42.849Z,97192.84
2022-12-15T22:48:36.862Z,97185.75
2022-12-15T22:51:25.203Z,97192.66
2022-12-15T22:54:29.340Z,97179.56
2022-12-15T22:57:21.986Z,97180.16
2022-12-15T23:00:12.930Z,97172.25
2022-12-15T23:03:02.575Z,97167.91
2022-12-15T23:05:53.027Z,97166.00
2022-12-15T23:08:41.489Z,97169.44
2022-12-15T23:11:38.430Z,97175.50
2022-12-15T23:14:40.298Z,97180.50
2022-12-15T23:17:28.272Z,97187.44
2022-12-15T23:20:17.595Z,97187.34
2022-12-15T23:23:05.694Z,97182.03
2022-12-15T23:25:54.832Z,97177.69
2022-12-15T23:28:43.352Z,97175.81
2022-12-15T23:31:31.958Z,97172.28
2022-12-15T23:34:20.500Z,97170.59
2022-12-15T23:37:09.986Z,97166.16
2022-12-15T23:39:57.968Z,97166.16
2022-12-15T23:42:45.931Z,97165.09
2022-12-15T23:45:33.978Z,97171.13
2022-12-15T23:48:22.352Z,97165.84
2022-12-15T23:51:12.635Z,97163.94
2022-12-15T23:54:02.099Z,97166.44
2022-12-15T23:56:49.911Z,97168.13
2022-12-15T23:59:39.669Z,97158.53
